createdAt,value
2023-04-16T00:02:05.167Z,7.55
2023-04-16T00:04:34.859Z,7.50
2023-04-16T00:07:04.772Z,7.57
2023-04-16T00:09:33.824Z,7.85
2023-04-16T00:12:03.595Z,8.63
2023-04-16T00:14:32.581Z,7.68
2023-04-16T00:17:02.111Z,8.38
2023-04-16T00:19:31.487Z,7.60
2023-04-16T00:22:00.783Z,8.73
2023-04-16T00:24:29.918Z,8.57
2023-04-16T00:26:59.549Z,9.30
2023-04-16T00:29:30.207Z,9.13
2023-04-16T00:31:59.936Z,9.90
2023-04-16T00:34:29.127Z,9.27
2023-04-16T00:36:58.526Z,9.63
2023-04-16T00:39:27.737Z,9.98
2023-04-16T00:41:57.457Z,10.48
2023-04-16T00:44:26.912Z,9.95
2023-04-16T00:46:57.360Z,9.70
2023-04-16T00:49:27.080Z,9.43
2023-04-16T00:51:56.738Z,9.98
2023-04-16T00:54:27.279Z,9.75
2023-04-16T00:56:57.874Z,8.70
2023-04-16T00:59:28.034Z,8.70
2023-04-16T01:01:58.351Z,8.48
2023-04-16T01:04:27.635Z,8.50
2023-04-16T01:06:57.632Z,8.35
2023-04-16T01:09:26.911Z,7.93
2023-04-16T01:11:56.694Z,8.48
2023-04-16T01:14:25.782Z,7.75
2023-04-16T01:16:55.124Z,7.97
2023-04-16T01:19:24.393Z,8.50
2023-04-16T01:21:53.845Z,8.02
2023-04-16T01:24:23.666Z,8.10
2023-04-16T01:26:52.747Z,8.88
2023-04-16T01:29:22.325Z,8.57
2023-04-16T01:31:53.345Z,9.30
2023-04-16T01:34:33.077Z,9.50
2023-04-16T01:37:03.053Z,8.82
2023-04-16T01:39:32.052Z,10.35
2023-04-16T01:42:01.863Z,12.27
2023-04-16T01:44:32.339Z,13.30
2023-04-16T01:47:02.423Z,14.63
2023-04-16T01:49:32.775Z,13.77
2023-04-16T01:52:04.517Z,16.58
2023-04-16T01:54:33.960Z,21.10
2023-04-16T01:57:04.159Z,21.63
2023-04-16T01:59:33.540Z,22.70
2023-04-16T02:02:15.869Z,26.05
2023-04-16T02:07:16.044Z,25.40
2023-04-16T02:09:45.394Z,25.77
2023-04-16T02:12:15.256Z,25.58
2023-04-16T02:14:44.755Z,25.63
2023-04-16T02:17:16.795Z,29.30
2023-04-16T02:19:47.515Z,27.58
2023-04-16T02:22:17.406Z,28.08
2023-04-16T02:24:46.527Z,28.20
2023-04-16T02:27:17.252Z,25.50
2023-04-16T02:29:47.043Z,27.02
2023-04-16T02:32:19.810Z,26.23
2023-04-16T02:34:49.705Z,26.40
2023-04-16T02:37:18.781Z,23.90
2023-04-16T02:39:48.796Z,23.67
2023-04-16T02:42:18.294Z,22.73
2023-04-16T02:44:47.756Z,23.48
2023-04-16T02:47:17.235Z,20.77
2023-04-16T02:49:46.913Z,20.75
2023-04-16T02:52:16.519Z,19.13
2023-04-16T02:54:45.672Z,19.58
2023-04-16T02:57:15.025Z,17.98
2023-04-16T02:59:44.392Z,17.23
2023-04-16T03:02:15.080Z,15.80
2023-04-16T03:04:44.712Z,16.10
2023-04-16T03:07:14.762Z,15.80
2023-04-16T03:09:44.191Z,14.95
2023-04-16T03:12:13.352Z,14.77
2023-04-16T03:14:43.156Z,15.60
2023-04-16T03:17:12.932Z,15.25
2023-04-16T03:19:42.129Z,16.10
2023-04-16T03:22:11.219Z,15.85
2023-04-16T03:24:41.086Z,15.75
2023-04-16T03:27:10.210Z,16.52
2023-04-16T03:29:40.215Z,14.68
2023-04-16T03:32:10.849Z,15.60
2023-04-16T03:34:40.487Z,15.32
2023-04-16T03:37:13.044Z,15.25
2023-04-16T03:39:42.532Z,16.13
2023-04-16T03:42:13.597Z,15.27
2023-04-16T03:44:43.745Z,15.00
2023-04-16T03:47:13.730Z,13.95
2023-04-16T03:49:42.990Z,15.30
2023-04-16T03:52:12.746Z,15.15
2023-04-16T03:54:42.212Z,15.57
2023-04-16T03:57:22.928Z,15.25
2023-04-16T03:59:53.327Z,15.15
2023-04-16T04:02:24.842Z,14.18
2023-04-16T04:04:54.316Z,15.13
2023-04-16T04:07:23.872Z,14.85
2023-04-16T04:09:54.660Z,15.40
2023-04-16T04:12:24.276Z,14.85
2023-04-16T04:14:54.029Z,14.98
2023-04-16T04:17:23.173Z,15.40
2023-04-16T04:22:30.293Z,15.02
2023-04-16T04:24:59.719Z,15.57
2023-04-16T04:27:31.397Z,15.80
2023-04-16T04:30:00.829Z,15.45
2023-04-16T04:32:30.495Z,15.80
2023-04-16T04:35:03.637Z,14.27
2023-04-16T04:37:32.955Z,15.25
2023-04-16T04:40:07.981Z,14.25
2023-04-16T04:42:38.259Z,15.43
2023-04-16T04:45:08.371Z,16.30
2023-04-16T04:47:38.358Z,16.02
2023-04-16T04:50:08.369Z,15.38
2023-04-16T04:52:38.073Z,15.50
2023-04-16T04:55:08.874Z,15.25
2023-04-16T04:57:38.409Z,14.60
2023-04-16T05:00:09.159Z,15.02
2023-04-16T05:02:49.330Z,13.13
2023-04-16T05:05:18.852Z,13.27
2023-04-16T05:07:48.200Z,14.18
2023-04-16T05:10:17.969Z,13.60
2023-04-16T05:12:50.591Z,13.10
2023-04-16T05:15:20.201Z,13.98
2023-04-16T05:17:49.659Z,13.68
2023-04-16T05:20:19.055Z,14.32
2023-04-16T06:18:20.756Z,11.00
2023-04-16T06:20:50.233Z,12.75
2023-04-16T06:23:19.353Z,11.93
2023-04-16T06:25:48.742Z,12.10
2023-04-16T06:28:17.938Z,11.65
2023-04-16T06:30:48.130Z,12.38
2023-04-16T06:33:17.526Z,12.30
2023-04-16T06:35:46.715Z,12.43
2023-04-16T06:38:16.380Z,11.80
2023-04-16T06:40:45.703Z,11.73
2023-04-16T06:43:17.141Z,12.25
2023-04-16T06:45:47.164Z,10.77
2023-04-16T06:48:16.892Z,10.68
2023-04-16T06:50:46.294Z,11.23
2023-04-16T06:53:15.737Z,10.93
2023-04-16T06:55:44.964Z,10.80
2023-04-16T06:58:14.151Z,10.48
2023-04-16T07:00:43.405Z,10.45
2023-04-16T07:03:12.743Z,10.23
2023-04-16T07:05:42.737Z,11.60
2023-04-16T07:08:11.976Z,8.48
2023-04-16T07:10:41.549Z,8.05
2023-04-16T07:13:10.699Z,8.50
2023-04-16T07:15:39.962Z,8.73
2023-04-16T07:21:37.085Z,7.95
2023-04-16T07:24:07.132Z,8.75
2023-04-16T07:26:36.218Z,7.78
2023-04-16T07:29:05.594Z,7.80
2023-04-16T07:31:35.158Z,8.07
2023-04-16T07:34:04.482Z,8.43
2023-04-16T07:36:34.047Z,8.10
2023-04-16T07:42:30.448Z,8.25
2023-04-16T07:44:59.717Z,7.13
2023-04-16T07:47:29.232Z,6.90
2023-04-16T07:49:58.452Z,6.65
2023-04-16T07:52:28.656Z,7.28
2023-04-16T07:54:58.203Z,7.07
2023-04-16T07:57:27.759Z,6.90
2023-04-16T07:59:56.829Z,7.20
2023-04-16T08:02:26.665Z,6.90
2023-04-16T08:04:56.360Z,6.93
2023-04-16T08:07:25.930Z,6.95
2023-04-16T08:09:56.245Z,7.32
2023-04-16T08:12:25.664Z,6.22
2023-04-16T08:14:56.162Z,6.30
2023-04-16T08:17:25.916Z,6.15
2023-04-16T08:19:55.158Z,6.75
2023-04-16T08:22:24.416Z,6.93
2023-04-16T08:24:54.280Z,6.68
2023-04-16T08:27:23.486Z,6.93
2023-04-16T08:38:47.436Z,7.10
2023-04-16T08:41:17.101Z,6.47
2023-04-16T08:43:50.052Z,6.65
2023-04-16T08:46:23.971Z,6.30
2023-04-16T08:48:59.176Z,5.82
2023-04-16T08:55:16.659Z,6.60
2023-04-16T08:58:15.591Z,7.40
2023-04-16T09:00:47.399Z,6.88
2023-04-16T09:03:17.086Z,6.82
2023-04-16T09:05:46.525Z,6.50
2023-04-16T09:08:16.287Z,7.53
2023-04-16T09:10:46.116Z,7.30
2023-04-16T09:13:18.307Z,6.28
2023-04-16T09:15:48.415Z,6.60
2023-04-16T09:18:17.701Z,6.85
2023-04-16T09:20:47.272Z,7.15
2023-04-16T09:23:17.103Z,6.57
2023-04-16T09:25:46.118Z,6.85
2023-04-16T09:28:35.483Z,7.35
2023-04-16T09:31:31.103Z,6.82
2023-04-16T09:34:09.618Z,6.30
2023-04-16T09:36:38.896Z,7.35
2023-04-16T09:39:08.265Z,7.70
2023-04-16T09:41:40.854Z,7.45
2023-04-16T09:44:10.400Z,7.95
2023-04-16T09:46:44.458Z,8.00
2023-04-16T09:49:18.734Z,8.57
2023-04-16T09:51:53.958Z,7.88
2023-04-16T09:54:23.146Z,8.43
2023-04-16T09:56:52.197Z,8.75
2023-04-16T09:59:25.947Z,9.18
2023-04-16T10:02:14.295Z,9.90
2023-04-16T10:04:53.402Z,11.10
2023-04-16T10:07:23.533Z,10.63
2023-04-16T10:09:54.100Z,10.73
2023-04-16T10:12:23.959Z,10.63
2023-04-16T10:14:53.720Z,10.15
2023-04-16T10:17:23.974Z,9.63
2023-04-16T10:19:53.570Z,9.02
2023-04-16T10:22:22.792Z,9.25
2023-04-16T10:24:53.919Z,9.40
2023-04-16T10:27:23.886Z,9.15
2023-04-16T10:29:54.257Z,8.63
2023-04-16T10:32:24.112Z,9.55
2023-04-16T10:34:54.430Z,9.57
2023-04-16T10:37:32.431Z,9.50
2023-04-16T10:40:03.329Z,9.82
2023-04-16T10:42:33.330Z,8.13
2023-04-16T10:45:02.554Z,8.85
2023-04-16T10:47:33.073Z,8.38
2023-04-16T10:50:02.638Z,8.38
2023-04-16T10:52:33.029Z,9.05
2023-04-16T10:55:03.177Z,9.63
2023-04-16T10:57:33.822Z,8.73
2023-04-16T11:00:03.689Z,8.73
2023-04-16T11:02:33.788Z,9.43
2023-04-16T11:05:04.006Z,11.48
2023-04-16T11:07:37.614Z,11.90
2023-04-16T11:10:08.538Z,12.25
2023-04-16T11:12:40.659Z,12.43
2023-04-16T11:15:13.563Z,12.00
2023-04-16T11:17:52.030Z,12.00
2023-04-16T11:20:23.817Z,12.48
2023-04-16T11:22:55.873Z,11.15
2023-04-16T11:25:31.102Z,11.48
2023-04-16T11:28:01.441Z,11.23
2023-04-16T11:30:36.199Z,10.70
2023-04-16T11:33:11.002Z,11.50
2023-04-16T11:35:41.631Z,10.75
2023-04-16T11:38:10.995Z,10.30
2023-04-16T11:40:40.088Z,10.20
2023-04-16T11:43:17.893Z,10.27
2023-04-16T11:46:12.825Z,9.93
2023-04-16T11:48:56.493Z,9.85
2023-04-16T11:51:26.006Z,10.05
2023-04-16T11:53:56.645Z,10.45
2023-04-16T11:56:34.628Z,9.38
2023-04-16T11:59:20.858Z,9.32
2023-04-16T12:01:57.144Z,9.18
2023-04-16T12:04:28.577Z,7.72
2023-04-16T12:07:14.980Z,7.63
2023-04-16T12:09:45.565Z,7.55
2023-04-16T12:12:32.285Z,7.53
2023-04-16T12:15:06.544Z,7.13
2023-04-16T12:17:37.167Z,8.30
2023-04-16T12:20:11.323Z,7.72
2023-04-16T12:22:42.478Z,7.88
2023-04-16T12:25:17.962Z,8.27
2023-04-16T12:27:56.702Z,7.90
2023-04-16T12:30:27.996Z,7.22
2023-04-16T12:33:17.711Z,5.97
2023-04-16T12:35:47.860Z,7.70
2023-04-16T12:38:17.901Z,7.15
2023-04-16T12:40:48.266Z,7.63
2023-04-16T12:43:17.970Z,7.22
2023-04-16T12:45:48.135Z,7.75
2023-04-16T12:48:17.608Z,7.50
2023-04-16T12:50:47.537Z,6.65
2023-04-16T12:53:16.898Z,8.60
2023-04-16T12:55:46.559Z,7.85
2023-04-16T12:58:15.733Z,7.50
2023-04-16T13:00:45.195Z,7.88
2023-04-16T13:03:14.617Z,7.88
2023-04-16T13:09:43.860Z,7.70
2023-04-16T13:12:14.099Z,7.82
2023-04-16T13:14:45.115Z,7.57
2023-04-16T13:17:14.929Z,8.07
2023-04-16T13:19:44.981Z,8.10
2023-04-16T13:22:14.406Z,7.57
2023-04-16T13:24:43.461Z,8.75
2023-04-16T13:27:13.547Z,9.73
2023-04-16T13:29:42.940Z,9.35
2023-04-16T13:32:14.920Z,9.60
2023-04-16T13:34:44.765Z,11.20
2023-04-16T13:37:14.936Z,11.82
2023-04-16T13:39:44.772Z,13.13
2023-04-16T13:42:13.881Z,13.18
2023-04-16T13:44:43.884Z,11.55
2023-04-16T13:47:13.733Z,11.48
2023-04-16T13:49:42.717Z,12.30
2023-04-16T13:52:12.477Z,11.40
2023-04-16T13:54:42.524Z,10.93
2023-04-16T13:57:21.729Z,11.07
2023-04-16T13:59:51.346Z,7.72
2023-04-16T14:02:22.165Z,7.72
2023-04-16T14:04:51.645Z,7.57
2023-04-16T14:07:23.842Z,6.50
2023-04-16T14:09:53.056Z,6.53
2023-04-16T14:12:22.396Z,6.43
2023-04-16T14:14:52.127Z,5.53
2023-04-16T14:17:21.985Z,5.90
2023-04-16T14:19:51.731Z,5.45
2023-04-16T14:22:21.768Z,6.65
2023-04-16T14:24:51.463Z,5.72
2023-04-16T14:27:21.123Z,6.25
2023-04-16T14:29:51.406Z,5.95
2023-04-16T14:32:21.207Z,5.75
2023-04-16T14:34:50.506Z,5.50
2023-04-16T14:37:20.745Z,6.00
2023-04-16T14:39:50.129Z,6.18
2023-04-16T14:42:19.988Z,5.60
2023-04-16T14:44:49.890Z,5.15
2023-04-16T14:47:19.309Z,5.32
2023-04-16T14:49:48.787Z,6.15
2023-04-16T14:52:18.667Z,5.75
2023-04-16T14:54:49.095Z,5.95
2023-04-16T14:57:19.188Z,6.72
2023-04-16T14:59:49.675Z,6.70
2023-04-16T15:02:19.278Z,6.32
2023-04-16T15:04:48.667Z,6.10
2023-04-16T15:07:18.529Z,6.95
2023-04-16T15:09:48.046Z,7.40
2023-04-16T15:12:19.169Z,7.95
2023-04-16T15:14:49.291Z,8.35
2023-04-16T15:17:18.599Z,6.88
2023-04-16T15:19:48.653Z,7.05
2023-04-16T15:22:18.052Z,7.53
2023-04-16T15:24:47.409Z,6.65
2023-04-16T15:27:16.879Z,5.90
2023-04-16T15:29:50.490Z,6.18
2023-04-16T15:32:20.521Z,7.28
2023-04-16T15:34:50.276Z,7.13
2023-04-16T15:37:20.990Z,7.30
2023-04-16T15:39:51.070Z,6.25
2023-04-16T15:42:20.584Z,6.40
2023-04-16T15:44:49.918Z,6.65
2023-04-16T15:47:19.025Z,6.40
2023-04-16T15:49:48.850Z,6.72
2023-04-16T15:52:20.916Z,6.13
2023-04-16T15:54:51.122Z,7.65
2023-04-16T15:57:22.157Z,6.88
2023-04-16T16:00:05.934Z,7.82
2023-04-16T16:02:37.044Z,7.78
2023-04-16T16:05:10.901Z,7.45
2023-04-16T16:07:41.163Z,7.65
2023-04-16T16:10:13.443Z,7.45
2023-04-16T16:15:13.386Z,6.97
2023-04-16T16:17:43.369Z,7.35
2023-04-16T16:20:14.402Z,7.25
2023-04-16T16:22:46.273Z,8.45
2023-04-16T16:25:18.062Z,8.02
2023-04-16T16:27:48.610Z,7.75
2023-04-16T16:30:17.688Z,8.07
2023-04-16T16:32:47.462Z,7.90
2023-04-16T16:35:17.806Z,8.13
2023-04-16T16:37:49.326Z,7.43
2023-04-16T16:40:18.671Z,7.55
2023-04-16T16:42:48.501Z,7.30
2023-04-16T16:45:18.810Z,7.10
2023-04-16T16:47:49.835Z,7.28
2023-04-16T16:50:20.811Z,7.57
2023-04-16T16:52:51.314Z,7.22
2023-04-16T16:55:22.396Z,7.05
2023-04-16T16:57:51.996Z,7.03
2023-04-16T17:00:23.447Z,7.38
2023-04-16T17:02:56.877Z,7.38
2023-04-16T17:05:27.656Z,6.72
2023-04-16T17:07:57.421Z,6.53
2023-04-16T17:10:27.158Z,9.13
2023-04-16T17:12:57.722Z,7.22
2023-04-16T17:15:27.428Z,7.35
2023-04-16T17:17:56.522Z,6.82
2023-04-16T17:20:27.740Z,7.22
2023-04-16T17:22:58.788Z,7.63
2023-04-16T17:25:29.783Z,8.10
2023-04-16T17:27:59.651Z,7.20
2023-04-16T17:30:29.449Z,7.38
2023-04-16T17:33:00.540Z,7.53
2023-04-16T17:35:30.127Z,7.55
2023-04-16T17:37:59.252Z,7.30
2023-04-16T17:40:29.820Z,7.40
2023-04-16T17:42:59.973Z,7.40
2023-04-16T17:45:31.312Z,7.78
2023-04-16T17:48:03.519Z,7.28
2023-04-16T17:50:33.816Z,6.45
2023-04-16T17:53:04.738Z,7.50
2023-04-16T17:55:36.403Z,6.40
2023-04-16T17:58:06.504Z,6.57
2023-04-16T18:00:35.666Z,6.75
2023-04-16T18:03:05.974Z,7.47
2023-04-16T18:05:35.950Z,7.65
2023-04-16T18:08:06.159Z,6.78
2023-04-16T18:10:36.041Z,8.15
2023-04-16T18:13:05.506Z,6.32
2023-04-16T18:15:40.948Z,6.70
2023-04-16T18:18:11.963Z,7.43
2023-04-16T18:20:42.169Z,7.55
2023-04-16T18:23:11.991Z,7.38
2023-04-16T18:25:42.790Z,7.85
2023-04-16T18:28:13.993Z,7.28
2023-04-16T18:30:45.321Z,6.75
2023-04-16T18:38:19.733Z,7.55
2023-04-16T18:40:51.312Z,7.60
2023-04-16T18:43:21.271Z,7.78
2023-04-16T18:45:50.784Z,8.13
2023-04-16T18:48:20.630Z,8.00
2023-04-16T18:50:49.773Z,7.45
2023-04-16T18:53:19.266Z,7.57
2023-04-16T18:55:48.609Z,9.43
2023-04-16T18:58:18.323Z,8.18
2023-04-16T19:00:48.445Z,8.15
2023-04-16T19:03:17.583Z,7.93
2023-04-16T19:05:47.270Z,8.32
2023-04-16T19:08:17.304Z,7.88
2023-04-16T19:10:50.505Z,7.95
2023-04-16T19:13:20.457Z,8.18
2023-04-16T19:15:49.556Z,7.68
2023-04-16T19:18:20.057Z,8.43
2023-04-16T19:20:49.589Z,8.52
2023-04-16T19:23:18.630Z,7.85
2023-04-16T19:26:19.508Z,8.82
2023-04-16T19:28:49.465Z,8.07
2023-04-16T19:31:19.252Z,8.23
2023-04-16T19:33:49.091Z,9.45
2023-04-16T19:36:19.758Z,8.05
2023-04-16T19:38:50.008Z,8.27
2023-04-16T19:41:19.428Z,8.68
2023-04-16T19:43:49.100Z,8.30
2023-04-16T19:46:18.917Z,9.00
2023-04-16T19:48:48.372Z,8.45
2023-04-16T19:51:18.311Z,10.60
2023-04-16T19:53:47.678Z,9.30
2023-04-16T19:56:18.154Z,9.18
2023-04-16T19:58:48.096Z,8.38
2023-04-16T20:01:17.263Z,9.00
2023-04-16T20:03:46.725Z,9.13
2023-04-16T20:06:16.159Z,8.25
2023-04-16T20:08:45.797Z,8.90
2023-04-16T20:11:14.836Z,8.15
2023-04-16T20:13:47.420Z,9.77
2023-04-16T20:16:16.905Z,8.25
2023-04-16T20:18:47.336Z,8.77
2023-04-16T20:21:16.768Z,8.70
2023-04-16T20:23:46.107Z,9.13
2023-04-16T20:26:19.597Z,9.15
2023-04-16T20:28:48.785Z,9.70
2023-04-16T20:31:17.813Z,9.95
2023-04-16T20:33:47.578Z,8.50
2023-04-16T20:36:17.073Z,8.63
2023-04-16T20:38:46.337Z,10.98
2023-04-16T20:41:22.094Z,9.48
2023-04-16T20:43:53.836Z,9.50
2023-04-16T20:46:31.202Z,9.57
2023-04-16T20:49:00.561Z,9.27
2023-04-16T20:51:29.749Z,8.88
2023-04-16T20:53:59.491Z,9.25
2023-04-16T20:56:28.903Z,9.45
2023-04-16T20:58:59.300Z,9.90
2023-04-16T21:01:28.770Z,10.15
2023-04-16T21:03:58.749Z,10.38
2023-04-16T21:06:28.254Z,10.40
2023-04-16T21:08:57.555Z,10.65
2023-04-16T21:11:27.497Z,9.80
2023-04-16T21:13:56.490Z,9.65
2023-04-16T21:16:26.561Z,9.48
2023-04-16T21:18:56.699Z,10.13
2023-04-16T21:21:27.424Z,9.43
2023-04-16T21:23:56.949Z,9.18
2023-04-16T21:26:26.842Z,9.27
2023-04-16T21:28:56.329Z,10.70
2023-04-16T21:31:25.656Z,14.27
2023-04-16T21:33:55.074Z,18.02
2023-04-16T21:36:25.538Z,20.50
2023-04-16T21:38:54.912Z,26.48
2023-04-16T21:41:24.013Z,32.95
2023-04-16T21:43:53.804Z,34.90
2023-04-16T21:46:24.157Z,34.97
2023-04-16T21:48:54.676Z,36.00
2023-04-16T21:51:30.287Z,36.42
2023-04-16T21:53:59.644Z,35.88
2023-04-16T21:56:29.539Z,34.63
2023-04-16T21:58:59.129Z,33.28
2023-04-16T22:01:28.199Z,31.40
2023-04-16T22:03:58.082Z,31.35
2023-04-16T22:06:28.616Z,30.85
2023-04-16T22:08:59.928Z,28.90
2023-04-16T22:11:29.322Z,27.50
2023-04-16T22:13:58.969Z,27.35
2023-04-16T22:16:28.963Z,28.05
2023-04-16T22:18:58.992Z,27.17
2023-04-16T22:21:28.825Z,26.58
2023-04-16T22:23:58.249Z,27.70
2023-04-16T22:26:27.938Z,26.40
2023-04-16T22:28:57.886Z,26.05
2023-04-16T22:31:27.659Z,26.27
2023-04-16T22:33:57.769Z,25.77
2023-04-16T22:36:27.928Z,25.67
2023-04-16T22:38:57.971Z,26.23
2023-04-16T22:41:28.143Z,25.90
2023-04-16T22:43:57.615Z,27.58
2023-04-16T22:46:27.513Z,26.33
2023-04-16T22:48:57.390Z,26.92
2023-04-16T22:51:26.867Z,26.58
2023-04-16T22:53:56.710Z,26.33
2023-04-16T22:56:29.961Z,27.90
2023-04-16T22:58:59.804Z,25.95
2023-04-16T23:01:29.400Z,26.52
2023-04-16T23:03:58.526Z,27.17
2023-04-16T23:06:28.405Z,24.52
2023-04-16T23:08:58.034Z,25.60
2023-04-16T23:11:27.274Z,26.52
2023-04-16T23:13:56.830Z,25.38
2023-04-16T23:16:27.469Z,25.58
2023-04-16T23:18:56.874Z,26.00
2023-04-16T23:21:26.329Z,25.23
2023-04-16T23:23:55.837Z,25.58
2023-04-16T23:26:25.165Z,26.65
2023-04-16T23:28:54.755Z,25.30
2023-04-16T23:31:23.996Z,26.25
2023-04-16T23:33:53.598Z,24.83
2023-04-16T23:36:23.234Z,23.98
2023-04-16T23:38:52.841Z,25.13
2023-04-16T23:41:24.476Z,26.08
2023-04-16T23:43:54.065Z,28.38
2023-04-16T23:46:23.328Z,25.92
2023-04-16T23:48:53.846Z,27.25
2023-04-16T23:51:23.218Z,26.65
2023-04-16T23:53:52.965Z,25.80
2023-04-16T23:56:22.470Z,25.40
2023-04-16T23:58:52.442Z,25.23
